createdAt,value
2023-03-27T00:00:34.389Z,1.12
2023-03-27T00:03:38.031Z,1.00
2023-03-27T00:06:40.635Z,1.20
2023-03-27T00:09:44.242Z,1.10
2023-03-27T00:12:46.594Z,1.30
2023-03-27T00:15:53.917Z,1.15
2023-03-27T00:18:56.554Z,1.02
2023-03-27T00:21:59.114Z,0.93
2023-03-27T00:25:02.381Z,1.15
2023-03-27T00:28:05.110Z,1.30
2023-03-27T00:31:15.663Z,1.42
2023-03-27T00:34:18.505Z,1.50
2023-03-27T00:37:22.211Z,1.12
2023-03-27T00:40:25.610Z,1.33
2023-03-27T00:43:35.668Z,1.50
2023-03-27T00:46:44.923Z,1.55
2023-03-27T00:49:49.836Z,1.40
2023-03-27T00:52:58.424Z,1.30
2023-03-27T00:56:04.964Z,1.60
2023-03-27T00:59:14.180Z,1.73
2023-03-27T01:02:17.933Z,1.73
2023-03-27T01:08:27.281Z,1.83
2023-03-27T01:11:42.154Z,1.75
2023-03-27T01:15:12.800Z,1.73
2023-03-27T01:18:53.702Z,1.65
2023-03-27T01:22:19.025Z,1.75
2023-03-27T01:25:45.954Z,1.40
2023-03-27T01:29:09.269Z,1.90
2023-03-27T01:32:27.200Z,1.57
2023-03-27T01:35:55.480Z,1.70
2023-03-27T01:39:50.418Z,1.77
2023-03-27T01:43:04.719Z,1.70
2023-03-27T01:46:15.792Z,1.98
2023-03-27T01:49:24.850Z,1.70
2023-03-27T01:52:31.549Z,1.80
2023-03-27T01:55:39.632Z,2.10
2023-03-27T01:58:46.770Z,1.60
2023-03-27T02:01:59.830Z,2.00
2023-03-27T02:05:12.694Z,2.17
2023-03-27T02:08:50.712Z,1.90
2023-03-27T02:11:59.516Z,1.50
2023-03-27T02:15:25.560Z,1.60
2023-03-27T02:18:35.939Z,1.83
2023-03-27T02:21:38.339Z,1.77
2023-03-27T02:24:43.365Z,2.05
2023-03-27T02:27:50.062Z,1.95
2023-03-27T02:31:05.386Z,1.70
2023-03-27T02:34:26.603Z,1.70
2023-03-27T02:37:54.606Z,1.80
2023-03-27T02:41:05.691Z,1.73
2023-03-27T02:44:47.408Z,1.98
2023-03-27T02:48:09.644Z,1.80
2023-03-27T02:51:22.487Z,1.65
2023-03-27T02:54:33.311Z,2.05
2023-03-27T02:57:52.301Z,1.62
2023-03-27T03:01:00.120Z,1.55
2023-03-27T03:04:13.224Z,1.50
2023-03-27T03:07:18.665Z,1.40
2023-03-27T03:10:21.643Z,1.42
2023-03-27T03:13:26.237Z,1.40
2023-03-27T03:16:29.862Z,1.50
2023-03-27T03:19:32.508Z,1.50
2023-03-27T03:22:36.389Z,1.90
2023-03-27T03:25:39.379Z,1.80
2023-03-27T03:28:59.769Z,1.53
2023-03-27T03:32:05.775Z,1.70
2023-03-27T03:35:09.907Z,1.62
2023-03-27T03:41:16.319Z,1.60
2023-03-27T03:44:19.018Z,1.73
2023-03-27T03:47:21.691Z,1.90
2023-03-27T03:50:24.451Z,2.47
2023-03-27T03:53:27.256Z,2.67
2023-03-27T03:56:30.905Z,10.15
2023-03-27T03:59:33.662Z,5.78
2023-03-27T04:02:38.765Z,3.80
2023-03-27T04:05:42.591Z,2.97
2023-03-27T04:08:45.036Z,3.10
2023-03-27T04:11:53.805Z,2.78
2023-03-27T04:14:57.645Z,2.92
2023-03-27T04:18:04.617Z,3.33
2023-03-27T04:21:14.877Z,3.03
2023-03-27T04:24:18.302Z,3.45
2023-03-27T04:27:21.466Z,3.33
2023-03-27T04:30:28.103Z,3.05
2023-03-27T04:33:34.386Z,3.30
2023-03-27T04:36:39.642Z,3.47
2023-03-27T04:42:50.176Z,3.40
2023-03-27T04:45:53.438Z,3.28
2023-03-27T04:52:00.859Z,3.75
2023-03-27T04:55:05.070Z,3.62
2023-03-27T04:58:08.242Z,3.75
2023-03-27T05:01:12.689Z,3.95
2023-03-27T05:04:17.354Z,3.78
2023-03-27T05:07:20.593Z,4.05
2023-03-27T05:10:23.609Z,3.85
2023-03-27T05:13:26.476Z,3.58
2023-03-27T05:16:28.880Z,3.60
2023-03-27T05:19:32.013Z,3.63
2023-03-27T05:22:34.903Z,3.60
2023-03-27T05:25:39.485Z,3.78
2023-03-27T05:28:44.782Z,3.92
2023-03-27T05:31:48.057Z,4.43
2023-03-27T05:34:54.666Z,3.67
2023-03-27T05:37:59.000Z,3.40
2023-03-27T05:41:02.323Z,3.60
2023-03-27T05:44:05.516Z,3.00
2023-03-27T05:47:10.354Z,3.12
2023-03-27T05:50:14.429Z,3.03
2023-03-27T05:53:17.818Z,3.67
2023-03-27T05:56:21.305Z,10.60
2023-03-27T05:59:24.373Z,4.30
2023-03-27T06:02:27.868Z,2.95
2023-03-27T06:05:32.498Z,2.80
2023-03-27T06:08:36.983Z,2.53
2023-03-27T06:11:42.795Z,2.42
2023-03-27T06:14:45.630Z,2.60
2023-03-27T06:17:49.157Z,5.53
2023-03-27T06:20:52.806Z,9.48
2023-03-27T06:23:56.337Z,3.40
2023-03-27T06:26:59.053Z,3.00
2023-03-27T06:30:04.697Z,2.80
2023-03-27T06:33:08.462Z,2.95
2023-03-27T06:36:12.373Z,2.60
2023-03-27T06:39:15.292Z,1.90
2023-03-27T06:42:21.275Z,1.62
2023-03-27T06:48:33.911Z,1.70
2023-03-27T06:51:37.152Z,10.07
2023-03-27T06:54:39.874Z,6.45
2023-03-27T06:57:44.197Z,2.60
2023-03-27T07:00:49.648Z,1.75
2023-03-27T07:04:03.794Z,1.40
2023-03-27T07:07:09.326Z,1.50
2023-03-27T07:10:12.729Z,1.67
2023-03-27T07:13:16.647Z,1.40
2023-03-27T07:16:19.096Z,1.23
2023-03-27T07:19:21.792Z,1.20
2023-03-27T07:25:37.824Z,1.42
2023-03-27T07:28:40.837Z,1.30
2023-03-27T07:31:57.669Z,1.30
2023-03-27T07:35:05.242Z,1.95
2023-03-27T07:38:09.813Z,5.82
2023-03-27T07:41:14.350Z,2.60
2023-03-27T07:44:19.713Z,1.45
2023-03-27T07:47:26.104Z,1.12
2023-03-27T07:50:47.920Z,1.40
2023-03-27T07:53:55.198Z,1.40
2023-03-27T07:56:58.479Z,1.17
2023-03-27T08:00:04.317Z,1.08
2023-03-27T08:03:19.864Z,1.17
2023-03-27T08:06:23.568Z,1.20
2023-03-27T08:09:25.964Z,1.10
2023-03-27T08:12:29.660Z,1.20
2023-03-27T08:15:32.375Z,1.40
2023-03-27T08:18:36.882Z,1.10
2023-03-27T08:21:39.734Z,1.17
2023-03-27T08:24:42.556Z,1.23
2023-03-27T08:27:45.386Z,1.35
2023-03-27T08:30:49.791Z,1.20
2023-03-27T08:33:52.306Z,1.45
2023-03-27T08:36:56.400Z,2.17
2023-03-27T08:40:01.966Z,2.55
2023-03-27T08:43:14.687Z,1.50
2023-03-27T08:46:22.636Z,1.40
2023-03-27T08:49:30.918Z,1.70
2023-03-27T08:52:34.549Z,1.23
2023-03-27T08:55:41.592Z,1.67
2023-03-27T08:58:45.658Z,2.12
2023-03-27T09:02:18.509Z,1.60
2023-03-27T09:05:33.385Z,1.48
2023-03-27T09:12:05.923Z,1.80
2023-03-27T09:15:16.682Z,1.65
2023-03-27T09:18:32.397Z,1.90
2023-03-27T09:21:38.461Z,1.50
2023-03-27T09:24:44.648Z,1.85
2023-03-27T09:27:52.389Z,1.85
2023-03-27T09:30:55.913Z,1.30
2023-03-27T09:34:04.053Z,1.67
2023-03-27T09:37:13.290Z,1.80
2023-03-27T09:40:30.485Z,1.48
2023-03-27T09:43:43.065Z,3.12
2023-03-27T09:46:49.699Z,1.85
2023-03-27T09:50:04.130Z,2.00
2023-03-27T09:53:23.042Z,1.50
2023-03-27T09:56:32.112Z,1.90
2023-03-27T10:00:00.300Z,1.80
2023-03-27T10:03:37.005Z,2.08
2023-03-27T10:06:47.992Z,2.08
2023-03-27T10:10:11.709Z,2.15
2023-03-27T10:13:16.654Z,1.67
2023-03-27T10:16:24.274Z,1.40
2023-03-27T10:19:37.183Z,1.33
2023-03-27T10:22:52.591Z,1.30
2023-03-27T10:26:04.070Z,1.27
2023-03-27T10:29:27.104Z,1.25
2023-03-27T10:32:44.877Z,1.50
2023-03-27T10:35:48.973Z,1.58
2023-03-27T10:42:08.546Z,1.17
2023-03-27T10:45:20.969Z,1.50
2023-03-27T10:48:47.770Z,1.67
2023-03-27T10:52:01.059Z,1.50
2023-03-27T10:55:22.216Z,1.70
2023-03-27T10:58:35.245Z,1.85
2023-03-27T11:01:46.798Z,1.45
2023-03-27T11:05:23.039Z,1.40
2023-03-27T11:08:51.435Z,1.60
2023-03-27T11:12:07.298Z,1.20
2023-03-27T11:15:38.335Z,1.02
2023-03-27T11:19:23.867Z,1.30
2023-03-27T11:22:59.919Z,1.00
2023-03-27T11:26:07.495Z,1.20
2023-03-27T11:29:21.474Z,1.10
2023-03-27T11:32:43.311Z,0.90
2023-03-27T11:35:54.552Z,0.82
2023-03-27T11:39:34.618Z,0.93
2023-03-27T11:42:42.857Z,0.80
2023-03-27T11:46:18.683Z,0.80
2023-03-27T11:49:39.812Z,0.95
2023-03-27T11:52:46.780Z,1.00
2023-03-27T11:56:00.372Z,1.02
2023-03-27T11:59:39.172Z,1.00
2023-03-27T12:03:00.355Z,1.30
2023-03-27T12:06:26.814Z,1.60
2023-03-27T12:10:01.319Z,2.17
2023-03-27T12:13:42.665Z,2.53
2023-03-27T12:17:14.272Z,4.22
2023-03-27T12:20:32.738Z,5.28
2023-03-27T12:24:04.632Z,7.43
2023-03-27T12:27:34.318Z,9.40
2023-03-27T12:30:44.746Z,10.07
2023-03-27T12:34:19.811Z,9.93
2023-03-27T12:37:31.107Z,10.27
2023-03-27T12:40:52.495Z,7.35
2023-03-27T12:44:01.329Z,6.90
2023-03-27T12:47:14.514Z,6.18
2023-03-27T12:50:27.432Z,4.72
2023-03-27T12:53:30.917Z,4.97
2023-03-27T12:56:36.203Z,3.85
2023-03-27T12:59:50.819Z,3.47
2023-03-27T13:06:12.780Z,2.78
2023-03-27T13:09:35.467Z,2.80
2023-03-27T13:12:48.142Z,2.03
2023-03-27T13:16:02.132Z,2.20
2023-03-27T13:19:24.126Z,1.62
2023-03-27T13:23:12.096Z,1.55
2023-03-27T13:26:21.556Z,1.98
2023-03-27T13:29:59.907Z,1.60
2023-03-27T13:33:31.608Z,1.37
2023-03-27T13:36:36.463Z,1.35
2023-03-27T13:40:02.299Z,1.30
2023-03-27T13:43:35.893Z,1.30
2023-03-27T13:46:48.180Z,1.58
2023-03-27T13:50:05.624Z,1.40
2023-03-27T13:53:25.491Z,1.40
2023-03-27T13:57:17.288Z,1.73
2023-03-27T14:00:25.208Z,1.50
2023-03-27T14:03:41.760Z,1.48
2023-03-27T14:07:09.571Z,1.60
2023-03-27T14:10:24.859Z,1.92
2023-03-27T14:14:03.563Z,1.90
2023-03-27T14:17:21.963Z,2.33
2023-03-27T14:20:41.844Z,2.35
2023-03-27T14:23:58.844Z,2.55
2023-03-27T14:27:03.982Z,2.40
2023-03-27T14:30:15.662Z,3.00
2023-03-27T14:33:20.060Z,2.53
2023-03-27T14:36:28.683Z,2.45
2023-03-27T14:39:37.653Z,1.95
2023-03-27T14:42:46.776Z,2.20
2023-03-27T14:45:52.562Z,2.10
2023-03-27T14:48:59.995Z,2.20
2023-03-27T14:52:07.766Z,2.40
2023-03-27T14:55:19.894Z,2.10
2023-03-27T14:58:25.081Z,2.20
2023-03-27T15:01:31.953Z,3.08
2023-03-27T15:04:35.133Z,1.80
2023-03-27T15:07:42.870Z,2.30
2023-03-27T15:10:52.093Z,2.40
2023-03-27T15:13:57.562Z,2.08
2023-03-27T15:17:06.933Z,1.90
2023-03-27T15:20:14.886Z,2.50
2023-03-27T15:23:24.790Z,2.47
2023-03-27T15:26:32.115Z,1.60
2023-03-27T15:29:49.962Z,1.90
2023-03-27T15:32:56.846Z,1.77
2023-03-27T15:36:11.502Z,1.50
2023-03-27T15:39:22.415Z,1.62
2023-03-27T15:42:45.887Z,4.12
2023-03-27T15:45:55.322Z,1.77
2023-03-27T15:49:19.994Z,1.83
2023-03-27T15:52:32.370Z,2.10
2023-03-27T15:55:38.088Z,1.80
2023-03-27T15:58:46.490Z,1.42
2023-03-27T16:01:54.442Z,1.52
2023-03-27T16:04:58.976Z,2.00
2023-03-27T16:08:01.393Z,1.50
2023-03-27T16:11:06.354Z,1.73
2023-03-27T16:14:28.657Z,1.92
2023-03-27T16:17:42.767Z,1.83
2023-03-27T16:20:45.591Z,1.50
2023-03-27T16:23:48.248Z,1.77
2023-03-27T16:26:52.635Z,1.55
2023-03-27T16:33:22.509Z,1.95
2023-03-27T16:36:33.629Z,1.73
2023-03-27T16:39:36.449Z,1.60
2023-03-27T16:42:39.153Z,1.83
2023-03-27T16:45:42.000Z,2.05
2023-03-27T16:48:44.901Z,1.80
2023-03-27T16:51:47.311Z,1.60
2023-03-27T16:54:52.739Z,1.73
2023-03-27T16:57:55.802Z,1.70
2023-03-27T17:00:58.548Z,2.12
2023-03-27T17:04:01.305Z,1.90
2023-03-27T17:07:05.375Z,2.40
2023-03-27T17:10:08.781Z,2.00
2023-03-27T17:13:11.581Z,1.73
2023-03-27T17:16:15.349Z,1.70
2023-03-27T17:19:18.534Z,2.17
2023-03-27T17:22:21.508Z,2.00
2023-03-27T17:25:24.317Z,2.00
2023-03-27T17:28:26.604Z,1.98
2023-03-27T17:31:30.972Z,1.90
2023-03-27T17:34:33.468Z,1.48
2023-03-27T17:37:36.366Z,1.95
2023-03-27T17:40:40.908Z,1.87
2023-03-27T17:43:45.327Z,1.50
2023-03-27T17:46:47.825Z,3.20
2023-03-27T17:49:52.927Z,2.17
2023-03-27T17:52:55.565Z,1.62
2023-03-27T17:55:59.300Z,2.15
2023-03-27T17:59:02.447Z,2.10
2023-03-27T18:02:05.369Z,2.78
2023-03-27T18:05:08.137Z,1.87
2023-03-27T18:08:12.739Z,2.10
2023-03-27T18:11:19.111Z,2.10
2023-03-27T18:14:21.492Z,2.10
2023-03-27T18:17:24.384Z,2.22
2023-03-27T18:20:26.781Z,2.15
2023-03-27T18:23:29.473Z,2.03
2023-03-27T18:26:31.903Z,1.67
2023-03-27T18:29:34.574Z,2.28
2023-03-27T18:32:36.961Z,1.90
2023-03-27T18:35:42.657Z,2.03
2023-03-27T18:38:45.991Z,1.75
2023-03-27T18:41:51.388Z,1.70
2023-03-27T18:44:53.935Z,1.87
2023-03-27T18:47:56.650Z,1.90
2023-03-27T18:51:01.728Z,2.83
2023-03-27T18:54:06.030Z,2.40
2023-03-27T19:00:18.343Z,1.60
2023-03-27T19:03:23.523Z,1.65
2023-03-27T19:06:26.640Z,1.73
2023-03-27T19:09:40.673Z,2.22
2023-03-27T19:12:44.437Z,1.70
2023-03-27T19:15:48.952Z,1.62
2023-03-27T19:18:52.930Z,1.92
2023-03-27T19:21:55.456Z,1.58
2023-03-27T19:24:58.920Z,1.73
2023-03-27T19:28:02.558Z,1.80
2023-03-27T19:31:09.893Z,1.65
2023-03-27T19:34:12.241Z,1.67
2023-03-27T19:37:14.999Z,1.70
2023-03-27T19:40:18.523Z,1.80
2023-03-27T19:43:21.911Z,1.80
2023-03-27T19:46:24.589Z,3.90
2023-03-27T19:49:27.523Z,3.55
2023-03-27T19:52:30.698Z,1.92
2023-03-27T19:55:33.367Z,1.75
2023-03-27T19:58:35.901Z,1.85
2023-03-27T20:01:38.605Z,1.87
2023-03-27T20:04:41.563Z,1.85
2023-03-27T20:07:43.858Z,2.12
2023-03-27T20:10:50.702Z,1.70
2023-03-27T20:13:56.987Z,1.65
2023-03-27T20:16:59.993Z,1.67
2023-03-27T20:20:02.390Z,1.67
2023-03-27T20:23:06.092Z,1.67
2023-03-27T20:26:09.236Z,1.60
2023-03-27T20:29:16.218Z,1.70
2023-03-27T20:32:19.946Z,1.60
2023-03-27T20:35:25.020Z,1.67
2023-03-27T20:38:30.791Z,1.55
2023-03-27T20:41:34.624Z,1.58
2023-03-27T20:44:37.167Z,1.30
2023-03-27T20:47:43.263Z,1.40
2023-03-27T20:50:55.773Z,1.37
2023-03-27T20:53:58.414Z,1.37
2023-03-27T20:57:01.523Z,1.42
2023-03-27T21:00:08.129Z,1.87
2023-03-27T21:03:10.968Z,1.75
2023-03-27T21:06:17.305Z,1.35
2023-03-27T21:09:19.827Z,1.30
2023-03-27T21:12:22.423Z,1.50
2023-03-27T21:15:24.772Z,1.33
2023-03-27T21:18:27.463Z,1.55
2023-03-27T21:21:31.216Z,1.48
2023-03-27T21:27:36.051Z,1.42
2023-03-27T21:30:46.500Z,1.27
2023-03-27T21:33:50.629Z,1.33
2023-03-27T21:36:53.311Z,1.20
2023-03-27T21:39:55.975Z,1.87
2023-03-27T21:42:59.794Z,1.48
2023-03-27T21:46:03.607Z,1.40
2023-03-27T21:49:06.507Z,1.27
2023-03-27T21:52:09.594Z,1.30
2023-03-27T21:55:12.318Z,1.35
2023-03-27T21:58:14.660Z,1.60
2023-03-27T22:01:17.794Z,1.30
2023-03-27T22:04:21.788Z,1.60
2023-03-27T22:07:24.320Z,1.30
2023-03-27T22:10:26.951Z,1.50
2023-03-27T22:13:29.360Z,1.50
2023-03-27T22:16:31.970Z,1.60
2023-03-27T22:19:34.292Z,1.50
2023-03-27T22:22:38.031Z,1.20
2023-03-27T22:25:40.453Z,1.50
2023-03-27T22:28:43.425Z,1.42
2023-03-27T22:31:45.826Z,1.30
2023-03-27T22:34:49.273Z,1.50
2023-03-27T22:37:51.641Z,1.43
2023-03-27T22:40:54.221Z,1.48
2023-03-27T22:43:56.557Z,1.33
2023-03-27T22:47:00.342Z,1.20
2023-03-27T22:50:04.914Z,1.40
2023-03-27T22:53:07.704Z,1.50
2023-03-27T22:56:10.240Z,1.60
2023-03-27T22:59:14.141Z,1.70
2023-03-27T23:02:16.654Z,1.77
2023-03-27T23:05:19.464Z,1.80
2023-03-27T23:08:24.326Z,1.60
2023-03-27T23:11:27.021Z,1.37
2023-03-27T23:14:29.465Z,1.60
2023-03-27T23:17:32.094Z,1.67
2023-03-27T23:20:34.399Z,1.40
2023-03-27T23:23:38.955Z,1.42
2023-03-27T23:26:41.369Z,1.33
2023-03-27T23:29:44.541Z,1.23
2023-03-27T23:32:46.876Z,1.50
2023-03-27T23:35:49.543Z,1.40
2023-03-27T23:38:53.189Z,1.30
2023-03-27T23:41:56.005Z,1.42
2023-03-27T23:44:58.337Z,1.37
2023-03-27T23:48:01.381Z,1.60
2023-03-27T23:51:04.311Z,1.40
2023-03-27T23:54:06.931Z,1.83
2023-03-27T23:57:09.446Z,1.60
